createdAt,value
2018-11-26T00:01:38.068Z,4.20
2018-11-26T00:14:14.238Z,4.30
2018-11-26T00:21:46.072Z,4.30
2018-11-26T00:30:15.373Z,4.40
2018-11-26T00:33:02.752Z,4.30
2018-11-26T00:40:35.021Z,4.30
2018-11-26T00:50:40.575Z,4.30
2018-11-26T01:00:50.274Z,4.30
2018-11-26T01:07:00.320Z,4.30
2018-11-26T01:10:37.958Z,4.30
2018-11-26T01:15:40.468Z,4.30
2018-11-26T01:23:12.048Z,4.20
2018-11-26T01:33:16.228Z,4.20
2018-11-26T01:40:58.157Z,4.20
2018-11-26T01:48:29.677Z,4.20
2018-11-26T01:56:07.141Z,4.30
2018-11-26T02:06:20.470Z,4.20
2018-11-26T02:13:52.972Z,4.30
2018-11-26T02:23:56.550Z,4.30
2018-11-26T02:41:37.550Z,4.20
2018-11-26T02:49:10.137Z,4.30
2018-11-26T02:56:41.780Z,4.10
2018-11-26T03:06:47.857Z,4.20
2018-11-26T03:09:19.893Z,4.20
2018-11-26T03:19:25.542Z,4.20
2018-11-26T03:26:57.617Z,4.20
2018-11-26T03:42:06.249Z,4.10
2018-11-26T03:49:38.939Z,4.00
2018-11-26T04:02:17.560Z,3.90
2018-11-26T04:14:59.333Z,3.80
2018-11-26T04:17:29.807Z,3.80
2018-11-26T04:20:38.690Z,3.80
2018-11-26T04:25:46.730Z,3.90
2018-11-26T04:33:19.234Z,3.80
2018-11-26T04:40:50.846Z,3.80
2018-11-26T04:50:54.819Z,3.80
2018-11-26T05:00:59.256Z,3.90
2018-11-26T05:13:35.322Z,3.90
2018-11-26T05:23:47.099Z,4.00
2018-11-26T05:35:56.802Z,3.90
2018-11-26T05:43:25.117Z,4.00
2018-11-26T05:53:33.795Z,3.90
2018-11-26T05:58:39.274Z,3.90
2018-11-26T06:06:11.511Z,3.90
2018-11-26T06:13:45.031Z,3.90
2018-11-26T06:18:46.468Z,3.90
2018-11-26T06:29:00.880Z,3.90
2018-11-26T06:44:09.796Z,3.80
2018-11-26T06:57:41.975Z,3.80
2018-11-26T07:05:15.555Z,3.80
2018-11-26T07:15:20.047Z,3.80
2018-11-26T07:22:56.691Z,3.90
2018-11-26T07:33:05.264Z,3.90
2018-11-26T07:45:45.491Z,4.00
2018-11-26T07:48:34.434Z,4.00
2018-11-26T07:51:05.027Z,4.00
2018-11-26T07:58:41.084Z,4.00
2018-11-26T08:08:45.379Z,4.00
2018-11-26T08:16:17.452Z,4.00
2018-11-26T08:31:32.423Z,4.10
2018-11-26T08:41:37.011Z,4.20
2018-11-26T08:59:24.751Z,4.30
2018-11-26T09:06:57.276Z,4.30
2018-11-26T09:11:58.195Z,4.30
2018-11-26T09:27:10.440Z,4.40
2018-11-26T09:39:46.110Z,4.60
2018-11-26T09:53:22.471Z,4.60
2018-11-26T10:06:58.010Z,4.60
2018-11-26T10:11:59.399Z,4.60
2018-11-26T10:22:04.792Z,4.60
2018-11-26T10:29:36.861Z,4.60
2018-11-26T10:37:09.937Z,4.70
2018-11-26T10:43:00.376Z,4.80
2018-11-26T10:50:40.069Z,4.70
2018-11-26T11:05:22.093Z,4.70
2018-11-26T11:12:56.807Z,4.80
2018-11-26T11:20:28.619Z,4.80
2018-11-26T11:28:01.977Z,4.80
2018-11-26T11:43:11.420Z,4.60
2018-11-26T11:58:25.042Z,4.70
2018-11-26T12:16:04.737Z,4.60
2018-11-26T12:21:13.209Z,4.40
2018-11-26T12:33:59.455Z,4.60
2018-11-26T12:57:16.544Z,4.70
2018-11-26T13:07:30.929Z,4.60
2018-11-26T13:12:43.181Z,4.50
2018-11-26T13:30:24.149Z,4.60
2018-11-26T13:37:56.522Z,4.60
2018-11-26T13:48:06.290Z,4.60
2018-11-26T14:22:56.977Z,4.20
2018-11-26T14:33:11.523Z,4.10
2018-11-26T14:48:34.781Z,3.80
2018-11-26T14:56:07.693Z,3.70
2018-11-26T15:06:15.236Z,3.50
2018-11-26T15:11:23.174Z,3.40
2018-11-26T15:26:42.950Z,3.50
2018-11-26T15:39:19.590Z,3.50
2018-11-26T15:46:52.116Z,3.50
2018-11-26T16:07:01.760Z,3.50
